Latest Weather Observations for Orange Airport

IDN60801

Issued at 3:03 am EDT Friday 19 December 2014 (issued every 30 minutes, with the page automatically refreshed every 10 minutes)

About weather observations | Map of weather stations | Latest weather observations for NSW | Other Formats
Station Details ID: 063303 Name: ORANGE AIRPORT AWS Lat: -33.38 Lon: 149.13 Height: 944.65 m
Data from the previous 72 hours. | See also: Recent months at Orange Airport
Date/Time
EDT
Temp
°C
App
Temp
°C
Dew
Point
Rel
Hum
%
Delta-T
°C
Wind Press
QNH
hPa
Press
MSL
hPa
Rain
since 9 am
mm
Dir
 
Spd
km/h
Gust
km/h
Spd
kts
Gust
kts
19/02:30am 13.8 8.1 3.0 48 5.1 SW 22 30 12 16 1012.2 1008.3 0.0
19/02:00am 14.0 8.7 2.9 47 5.2 SW 20 26 11 14 1012.1 1008.2 0.0
19/01:30am 14.8 8.6 2.4 43 5.8 SW 24 30 13 16 1012.4 1008.4 0.0
19/01:00am 15.7 9.4 1.4 38 6.6 SW 24 33 13 18 1012.5 1008.5 0.0
19/12:30am 16.7 9.9 0.8 34 7.3 SW 26 39 14 21 1012.5 1008.5 0.0
19/12:00am 16.9 10.7 -0.3 31 7.8 SW 22 32 12 17 1012.2 1008.3 0.0
 
Date/Time
EDT
Temp
°C
App
Temp
°C
Dew
Point
Rel
Hum
%
Delta-T
°C
Wind Press
QNH
hPa
Press
MSL
hPa
Rain
since 9 am
mm
Dir
 
Spd
km/h
Gust
km/h
Spd
kts
Gust
kts
18/11:30pm 14.3 9.5 0.2 38 6.3 WSW 15 15 8 8 1012.0 1008.1 0.0
18/11:00pm 14.7 10.6 -0.2 36 6.6 WSW 11 13 6 7 1011.9 1008.0 0.0
18/10:30pm 15.6 11.8 -1.0 32 7.3 WSW 9 9 5 5 1012.1 1008.2 0.0
18/10:00pm 16.0 11.9 -0.2 33 7.3 WSW 11 11 6 6 1012.1 1008.2 0.0
18/09:30pm 17.0 12.7 -1.6 28 8.2 W 11 13 6 7 1012.1 1008.2 0.0
18/09:00pm 18.2 13.8 -2.1 25 8.9 W 11 13 6 7 1011.9 1008.0 0.0
18/08:30pm 19.1 13.9 -2.5 23 9.5 W 15 19 8 10 1011.7 1007.7 0.0
18/08:00pm 21.2 15.2 -3.3 19 10.8 WSW 19 24 10 13 1011.3 1007.3 0.0
18/07:30pm 22.9 16.3 -3.4 17 11.7 WSW 22 37 12 20 1010.7 1006.7 0.0
18/07:00pm 23.9 15.9 -2.6 17 12.1 W 30 41 16 22 1010.3 1006.3 0.0
18/06:30pm 24.4 15.9 -3.0 16 12.5 W 32 46 17 25 1010.3 1006.3 0.0
18/06:00pm 24.8 16.9 -1.9 17 12.5 W 30 46 16 25 1009.9 1005.9 0.0
18/05:34pm 25.5 18.1 -0.5 18 12.5 WSW 28 46 15 25 1010.1 1006.1 0.0
18/05:30pm 25.4 17.4 0.1 19 12.3 WSW 32 46 17 25 1009.9 1005.9 0.0
18/05:00pm 25.2 16.0 -1.6 17 12.6 WSW 37 50 20 27 1009.9 1005.9 0.0
18/04:30pm 25.8 18.7 -1.1 17 12.8 WNW 26 37 14 20 1009.7 1005.7 0.0
18/04:12pm 25.7 17.4 -2.0 16 13.0 W 32 50 17 27 1009.7 1005.7 0.0
18/04:00pm 26.1 18.0 0.0 18 12.7 WNW 32 46 17 25 1009.7 1005.7 0.0
18/03:31pm 26.4 19.0 -0.6 17 13.0 WNW 28 48 15 26 1009.7 1005.7 0.0
18/03:30pm 26.5 18.7 -0.5 17 13.1 WNW 30 48 16 26 1009.8 1005.8 0.0
18/03:00pm 26.4 19.3 -1.4 16 13.3 W 26 35 14 19 1009.8 1005.8 0.0
18/02:30pm 26.5 20.0 0.3 18 12.9 WNW 24 37 13 20 1009.8 1005.8 0.0
18/02:13pm 25.9 17.7 -1.0 17 12.8 W 32 50 17 27 1010.1 1006.1 0.0
18/02:11pm 26.5 18.5 0.3 18 12.9 W 32 50 17 27 1009.9 1005.9 0.0
18/02:00pm 26.2 20.1 2.8 22 12.0 WNW 24 39 13 21 1010.1 1006.1 0.0
18/01:30pm 26.0 19.7 5.6 27 11.0 WNW 28 35 15 19 1010.1 1006.1 0.0
18/01:00pm 26.1 22.2 7.2 30 10.5 NW 17 26 9 14 1010.3 1006.3 0.0
18/12:30pm 25.7 20.8 5.3 27 10.9 W 20 43 11 23 1010.5 1006.5 0.0
18/12:00pm 24.9 19.8 6.1 30 10.1 NW 22 32 12 17 1010.7 1006.7 0.0
18/11:30am 24.8 20.4 6.5 31 9.9 NW 19 26 10 14 1010.9 1006.9 0.0
18/11:00am 23.6 19.8 7.7 36 8.8 NW 17 26 9 14 1010.9 1006.9 0.0
18/10:30am 21.8 20.0 9.3 45 7.0 NNE 9 20 5 11 1011.4 1007.4 0.0
18/10:00am 21.3 19.9 10.8 51 6.0 WNW 9 19 5 10 1011.7 1007.7 0.0
18/09:30am 20.4 18.7 11.3 56 5.2 NNE 11 19 6 10 1011.6 1007.6 0.0
18/09:00am 18.5 17.4 11.8 65 3.9 NNE 9 15 5 8 1011.5 1007.5 0.0
18/08:30am 17.0 15.6 12.3 74 2.7 NE 11 17 6 9 1011.4 1007.4 0.0
18/08:00am 15.4 14.5 12.5 83 1.7 NE 9 13 5 7 1011.4 1007.4 0.0
18/07:30am 13.9 13.4 12.8 93 0.6 ENE 7 9 4 5 1011.4 1007.4 0.0
18/07:00am 11.6 11.4 10.5 93 0.6 NE 2 7 1 4 1011.3 1007.3 0.0
18/06:37am 10.7 9.3 9.6 93 0.6 NNE 7 9 4 5 1011.4 1007.4 0.0
18/06:30am 10.4 8.6 9.3 93 0.6 NNE 9 11 5 6 1011.5 1007.5 0.0
18/06:18am 10.2 8.7 9.1 93 0.6 N 7 9 4 5 1011.5 1007.5 0.0
18/06:00am 10.6 9.2 9.5 93 0.6 N 7 9 4 5 1011.0 1007.1 0.0
18/05:32am 11.2 9.6 10.1 93 0.6 E 9 11 5 6 1009.9 1005.9 0.0
18/05:30am 11.1 9.4 10.0 93 0.6 E 9 11 5 6 1009.9 1005.9 0.0
18/05:00am 11.8 10.7 10.7 93 0.6 ENE 7 11 4 6 1010.2 1006.2 0.0
18/04:30am 11.8 10.7 10.7 93 0.6 NE 7 11 4 6 1009.9 1005.9 0.0
18/04:00am 11.8 9.2 10.7 93 0.6 NE 15 20 8 11 1009.7 1005.7 0.0
18/03:30am 11.6 8.6 10.5 93 0.6 NE 17 24 9 13 1009.5 1005.5 0.0
18/03:29am 11.7 8.7 10.6 93 0.6 NE 17 24 9 13 1009.5 1005.5 0.0
18/03:00am 11.5 8.8 10.4 93 0.6 NE 15 22 8 12 1009.6 1005.6 0.0
18/02:30am 10.9 8.8 9.8 93 0.6 NE 11 15 6 8 1009.9 1005.9 0.0
18/02:00am 10.6 8.4 9.5 93 0.6 ENE 11 15 6 8 1010.3 1006.3 0.0
18/01:30am 8.6 6.9 7.5 93 0.5 ENE 6 9 3 5 1010.5 1006.5 0.0
18/01:00am 8.7 6.1 7.6 93 0.6 ESE 11 13 6 7 1010.3 1006.3 0.0
18/12:30am 8.8 6.4 6.9 88 0.9 SE 9 11 5 6 1010.8 1006.8 0.0
18/12:00am 9.9 6.2 4.3 68 2.6 SSE 13 13 7 7 1010.7 1006.7 0.0
 
Date/Time
EDT
Temp
°C
App
Temp
°C
Dew
Point
Rel
Hum
%
Delta-T
°C
Wind Press
QNH
hPa
Press
MSL
hPa
Rain
since 9 am
mm
Dir
 
Spd
km/h
Gust
km/h
Spd
kts
Gust
kts
17/11:30pm 9.7 6.5 3.2 64 3.0 WSW 9 9 5 5 1010.9 1006.9 0.0
17/11:00pm 11.1 9.4 4.1 62 3.3 ESE 2 7 1 4 1011.0 1007.1 0.0
17/10:30pm 11.1 7.8 2.7 56 3.8 SE 9 11 5 6 1010.9 1006.9 0.0
17/10:00pm 13.0 11.4 2.5 49 4.9 CALM 0 0 0 0 1011.1 1007.2 0.0
17/09:30pm 11.8 9.1 0.6 46 4.9 SW 4 11 2 6 1010.9 1006.9 0.0
17/09:00pm 14.6 10.6 0.5 38 6.4 WSW 11 13 6 7 1010.7 1006.7 0.0
17/08:30pm 16.7 12.6 -0.1 32 7.6 SW 11 13 6 7 1010.2 1006.2 0.0
17/08:00pm 19.0 14.2 0.1 28 8.8 WSW 15 17 8 9 1009.9 1005.9 0.0
17/07:30pm 21.2 17.2 0.4 25 9.8 WSW 11 13 6 7 1009.7 1005.7 0.0
17/07:00pm 21.4 16.3 -1.8 21 10.6 SW 15 20 8 11 1009.1 1005.0 0.0
17/06:30pm 24.0 18.8 -2.5 17 12.1 W 15 20 8 11 1008.6 1004.6 0.0
17/06:00pm 24.4 18.2 -4.8 14 12.9 W 19 26 10 14 1008.5 1004.5 0.0
17/05:30pm 25.5 18.3 -4.9 13 13.5 NW 24 32 13 17 1008.5 1004.5 0.0
17/05:00pm 26.2 19.5 -7.8 10 14.4 WNW 20 28 11 15 1008.4 1004.4 0.0
17/04:30pm 26.3 20.0 -4.3 13 13.8 WNW 20 32 11 17 1008.5 1004.5 0.0
17/04:00pm 26.9 19.4 -4.9 12 14.3 WNW 26 43 14 23 1008.6 1004.6 0.0
17/03:30pm 26.4 18.5 -9.0 9 14.7 W 26 35 14 19 1008.7 1004.7 0.0
17/03:00pm 26.2 19.4 -1.6 16 13.2 NW 24 35 13 19 1009.0 1004.9 0.0
17/02:30pm 26.5 19.8 -1.3 16 13.3 NW 24 35 13 19 1009.1 1005.0 0.0
17/02:00pm 26.3 20.3 -3.3 14 13.6 WNW 19 35 10 19 1009.1 1005.0 0.0
17/01:30pm 25.1 20.3 -0.1 19 12.2 WSW 15 22 8 12 1009.0 1004.9 0.0
17/01:00pm 24.8 19.0 -0.4 19 12.1 WSW 20 28 11 15 1009.0 1004.9 0.0
17/12:30pm 24.2 19.3 -0.2 20 11.7 WSW 15 22 8 12 1009.1 1005.0 0.0
17/12:00pm 23.5 18.8 1.2 23 10.9 SW 15 22 8 12 1009.1 1005.0 0.0
17/11:30am 22.3 17.7 1.3 25 10.2 SW 15 22 8 12 1009.3 1005.3 0.0
17/11:00am 21.3 16.6 1.0 26 9.7 SW 15 24 8 13 1009.4 1005.4 0.0
17/10:30am 20.8 15.0 0.1 25 9.7 SW 20 24 11 13 1009.4 1005.4 0.0
17/10:00am 19.8 14.8 1.3 29 8.8 WSW 17 24 9 13 1009.3 1005.3 0.0
17/09:30am 18.9 14.6 3.5 36 7.6 SW 15 20 8 11 1009.2 1005.2 0.0
17/09:00am 18.0 13.9 4.6 41 6.7 SW 15 20 8 11 1009.2 1005.2 0.0
17/08:30am 16.9 12.4 4.3 43 6.2 SW 17 24 9 13 1008.7 1004.7 0.0
17/08:00am 16.2 12.0 5.5 49 5.4 SSW 17 20 9 11 1008.4 1004.4 0.0
17/07:30am 15.2 10.0 3.7 46 5.6 SSW 20 30 11 16 1008.0 1003.9 0.0
17/07:00am 14.2 9.8 4.5 52 4.7 SW 17 20 9 11 1007.7 1003.7 0.0
17/06:30am 13.2 9.9 6.3 63 3.5 SSW 13 19 7 10 1007.5 1003.5 0.0
17/06:00am 13.2 8.8 6.5 64 3.4 SW 19 26 10 14 1007.0 1002.9 0.0
17/05:30am 13.5 9.6 7.1 65 3.3 SW 17 26 9 14 1006.4 1002.4 0.0
17/05:00am 14.5 9.3 7.1 61 3.8 SW 24 32 13 17 1006.1 1002.0 0.0
17/04:30am 15.2 9.3 7.5 60 4.0 SW 28 35 15 19 1005.9 1001.8 0.0
17/04:00am 15.7 10.1 7.0 56 4.5 SW 26 32 14 17 1005.8 1001.7 0.0
17/03:30am 16.5 9.6 6.6 52 5.1 SW 32 43 17 23 1005.6 1001.5 0.0
17/03:00am 18.4 12.4 3.1 36 7.5 SW 24 32 13 17 1005.6 1001.5 0.0
17/02:30am 19.9 14.6 3.2 33 8.3 SW 20 30 11 16 1005.2 1001.1 0.0
17/02:00am 20.1 15.6 4.2 35 8.1 W 17 20 9 11 1005.2 1001.1 0.0
17/01:30am 21.8 16.0 4.4 32 8.9 W 24 32 13 17 1005.1 1001.0 0.0
17/01:00am 21.4 14.9 4.5 33 8.7 WNW 28 41 15 22 1004.9 1000.8 0.0
17/12:57am 21.4 14.9 4.9 34 8.5 NW 28 41 15 22 1004.9 1000.8 0.0
17/12:30am 18.8 14.1 3.0 35 7.7 NW 17 20 9 11 1005.0 1000.9 0.0
17/12:00am 17.6 12.9 1.2 33 7.7 NNW 15 19 8 10 1005.3 1001.3 0.0
 
Date/Time
EDT
Temp
°C
App
Temp
°C
Dew
Point
Rel
Hum
%
Delta-T
°C
Wind Press
QNH
hPa
Press
MSL
hPa
Rain
since 9 am
mm
Dir
 
Spd
km/h
Gust
km/h
Spd
kts
Gust
kts
16/11:30pm 15.6 11.5 2.1 40 6.3 NNW 13 19 7 10 1005.8 1001.7 0.0
16/11:00pm 16.4 13.3 1.3 36 7.0 W 7 9 4 5 1005.7 1001.6 0.0
16/10:30pm 16.8 13.8 0.9 34 7.3 W 6 9 3 5 1005.8 1001.7 0.0
16/10:00pm 18.5 14.7 -0.8 27 8.8 W 9 9 5 5 1005.8 1001.7 0.0
16/09:30pm 18.1 14.6 -1.2 27 8.6 W 7 9 4 5 1005.9 1001.8 0.0
16/09:00pm 19.2 15.3 -1.3 25 9.3 W 9 11 5 6 1005.8 1001.7 0.0
16/08:30pm 21.6 16.7 -3.7 18 11.1 WSW 13 17 7 9 1005.4 1001.4 0.0
16/08:00pm 25.0 18.2 -5.3 13 13.3 WSW 22 32 12 17 1005.1 1001.0 0.0
16/07:30pm 26.7 18.7 -6.2 11 14.4 W 28 44 15 24 1004.9 1000.8 0.0
16/07:00pm 27.7 18.9 -6.6 10 15.1 W 32 46 17 25 1004.7 1000.6 0.0
16/06:30pm 28.6 19.5 -7.3 9 15.6 WSW 33 46 18 25 1004.4 1000.3 0.0
16/06:00pm 29.0 19.3 -5.7 10 15.7 WSW 37 59 20 32 1004.1 1000.0 0.0
16/05:34pm 29.4 20.2 -4.1 11 15.5 W 35 54 19 29 1004.0 999.9 0.0
16/05:30pm 29.4 19.9 -4.1 11 15.5 W 37 54 20 29 1004.0 999.9 0.0
16/05:00pm 30.0 21.3 -0.4 14 15.2 W 35 56 19 30 1004.2 1000.1 0.0
16/04:53pm 30.3 23.0 -0.1 14 15.2 W 28 46 15 25 1004.2 1000.1 0.0
16/04:30pm 29.4 21.9 3.4 19 13.7 W 32 46 17 25 1004.5 1000.4 0.0
16/04:00pm 30.8 21.0 2.1 16 15.0 WSW 43 61 23 33 1004.7 1000.6 0.0
16/03:30pm 30.5 21.5 4.3 19 14.1 WSW 41 63 22 34 1004.9 1000.8 0.0
16/03:00pm 30.7 21.6 5.9 21 13.8 W 43 70 23 38 1005.0 1000.9 0.0
16/02:56pm 31.0 22.4 4.7 19 14.3 W 39 70 21 38 1005.0 1000.9 0.0
16/02:30pm 28.1 20.0 6.8 26 11.8 WNW 39 54 21 29 1004.9 1000.8 0.0
16/02:00pm 28.9 19.3 6.3 24 12.5 NW 46 72 25 39 1004.8 1000.7 0.0
16/01:30pm 29.6 21.0 8.1 26 12.3 NW 43 61 23 33 1005.1 1001.0 0.0
16/01:00pm 29.2 21.3 7.7 26 12.2 NW 39 63 21 34 1005.6 1001.5 0.0
16/12:43pm 30.4 22.1 7.6 24 12.9 NNW 41 80 22 43 1005.7 1001.6 0.0
16/12:30pm 29.3 20.7 6.7 24 12.6 NNW 41 59 22 32 1005.8 1001.7 0.0
16/12:10pm 27.2 20.3 7.1 28 11.1 NNW 33 52 18 28 1006.3 1002.3 0.0
16/12:00pm 27.2 19.9 8.6 31 10.6 NNW 37 50 20 27 1006.3 1002.3 0.0
16/11:30am 27.1 19.0 7.0 28 11.1 N 39 56 21 30 1006.9 1002.8 0.0
16/11:09am 26.5 18.4 7.0 29 10.8 NNW 39 57 21 31 1007.3 1003.3 0.0
16/11:00am 26.4 17.9 6.9 29 10.8 NNW 41 56 22 30 1007.4 1003.4 0.0
16/10:48am 26.4 18.2 6.4 28 10.9 N 39 63 21 34 1007.5 1003.5 0.0
16/10:30am 25.7 16.6 5.8 28 10.7 N 43 56 23 30 1007.7 1003.7 0.0
16/10:03am 25.8 18.9 7.4 31 10.2 N 33 54 18 29 1008.0 1003.9 0.0
16/10:00am 25.1 18.5 8.6 35 9.3 N 33 44 18 24 1008.0 1003.9 0.0
16/09:30am 23.8 16.4 8.2 37 8.7 N 37 46 20 25 1008.0 1003.9 0.0
16/09:00am 21.0 14.6 8.6 45 6.9 N 32 43 17 23 1008.6 1004.6 0.0
16/08:30am 19.8 13.6 7.9 46 6.4 N 30 41 16 22 1009.9 1005.9 0.0
16/08:00am 18.6 12.6 8.6 52 5.4 NNW 30 50 16 27 1010.2 1006.2 0.0
16/07:58am 18.4 13.2 8.7 53 5.3 NNW 26 50 14 27 1010.1 1006.1 0.0
16/07:30am 18.2 15.5 10.3 60 4.4 N 15 17 8 9 1010.3 1006.3 0.0
16/07:00am 17.6 14.7 9.5 59 4.5 N 15 22 8 12 1009.4 1005.4 0.0
16/06:30am 16.7 14.6 11.2 70 3.1 NNE 13 15 7 8 1008.8 1004.8 0.0
16/06:00am 14.6 11.3 9.6 72 2.7 N 17 19 9 10 1008.5 1004.5 0.0
16/05:30am 15.6 12.4 9.9 69 3.1 NNE 17 20 9 11 1008.5 1004.5 0.0
16/05:00am 15.6 12.8 9.9 69 3.1 NNE 15 17 8 9 1009.3 1005.3 0.0
16/04:30am 15.7 13.1 10.7 72 2.8 N 15 19 8 10 1009.4 1005.4 0.0
16/04:00am 15.9 13.2 10.4 70 3.1 N 15 19 8 10 1009.4 1005.4 0.0
16/03:30am 15.8 13.7 11.2 74 2.6 N 13 19 7 10 1009.4 1005.4 0.0

Other Formats:

Comma delimited format used in spreadsheet applications
http://www.bom.gov.au/fwo/IDN60801/IDN60801.95726.axf

JavaScript Object Notation format (JSON) in row-major order
http://www.bom.gov.au/fwo/IDN60801/IDN60801.95726.json